sensor_id;sensor_type;location;lat;lon;timestamp;pressure;altitude;pressure_sealevel;temperature;humidity
41264;BME280;26998;48.714;9.414;2023-09-08T00:00:01;100319.59;;;14.66;100.00
41264;BME280;26998;48.714;9.414;2023-09-08T00:02:28;100329.72;;;14.64;100.00
41264;BME280;26998;48.714;9.414;2023-09-08T00:04:55;100336.56;;;14.67;100.00
41264;BME280;26998;48.714;9.414;2023-09-08T00:07:23;100306.00;;;14.89;100.00
41264;BME280;26998;48.714;9.414;2023-09-08T00:09:50;100295.34;;;14.81;100.00
41264;BME280;26998;48.714;9.414;2023-09-08T00:12:17;100269.53;;;14.87;100.00
41264;BME280;26998;48.714;9.414;2023-09-08T00:14:44;100253.22;;;14.95;100.00
41264;BME280;26998;48.714;9.414;2023-09-08T00:17:11;100225.88;;;14.91;100.00
41264;BME280;26998;48.714;9.414;2023-09-08T00:19:38;100226.41;;;14.80;100.00
41264;BME280;26998;48.714;9.414;2023-09-08T00:22:05;100255.97;;;14.59;100.00
41264;BME280;26998;48.714;9.414;2023-09-08T00:24:31;100270.53;;;14.49;100.00
41264;BME280;26998;48.714;9.414;2023-09-08T00:26:58;100288.91;;;14.46;100.00
41264;BME280;26998;48.714;9.414;2023-09-08T00:29:24;100292.59;;;14.45;100.00
41264;BME280;26998;48.714;9.414;2023-09-08T00:31:51;100276.53;;;14.66;100.00
41264;BME280;26998;48.714;9.414;2023-09-08T00:34:17;100258.84;;;14.57;100.00
41264;BME280;26998;48.714;9.414;2023-09-08T00:36:44;100266.75;;;14.29;100.00
41264;BME280;26998;48.714;9.414;2023-09-08T00:39:12;100304.31;;;14.07;100.00
41264;BME280;26998;48.714;9.414;2023-09-08T00:41:39;100327.78;;;13.99;100.00
41264;BME280;26998;48.714;9.414;2023-09-08T00:44:05;100353.44;;;14.01;100.00
41264;BME280;26998;48.714;9.414;2023-09-08T00:46:32;100348.81;;;14.10;100.00
41264;BME280;26998;48.714;9.414;2023-09-08T00:49:00;100360.75;;;14.07;100.00
41264;BME280;26998;48.714;9.414;2023-09-08T00:51:27;100366.34;;;14.06;100.00
41264;BME280;26998;48.714;9.414;2023-09-08T00:53:55;100362.09;;;14.12;100.00
41264;BME280;26998;48.714;9.414;2023-09-08T00:56:22;100372.16;;;13.95;100.00
41264;BME280;26998;48.714;9.414;2023-09-08T00:58:49;100388.00;;;13.90;100.00
41264;BME280;26998;48.714;9.414;2023-09-08T01:01:15;100396.44;;;13.86;100.00
41264;BME280;26998;48.714;9.414;2023-09-08T01:03:42;100402.78;;;13.71;100.00
41264;BME280;26998;48.714;9.414;2023-09-08T01:06:09;100415.66;;;13.75;100.00
41264;BME280;26998;48.714;9.414;2023-09-08T01:08:37;100418.47;;;13.82;100.00
41264;BME280;26998;48.714;9.414;2023-09-08T01:11:03;100417.06;;;13.71;100.00
41264;BME280;26998;48.714;9.414;2023-09-08T01:13:30;100423.78;;;13.67;100.00
41264;BME280;26998;48.714;9.414;2023-09-08T01:15:56;100441.59;;;13.68;100.00
41264;BME280;26998;48.714;9.414;2023-09-08T01:18:23;100440.94;;;13.66;100.00
41264;BME280;26998;48.714;9.414;2023-09-08T01:21:05;100429.50;;;13.64;100.00
41264;BME280;26998;48.714;9.414;2023-09-08T01:23:57;100441.31;;;13.55;100.00
41264;BME280;26998;48.714;9.414;2023-09-08T01:26:33;100447.38;;;13.57;100.00
41264;BME280;26998;48.714;9.414;2023-09-08T01:29:04;100451.94;;;13.48;100.00
41264;BME280;26998;48.714;9.414;2023-09-08T01:31:31;100464.06;;;13.44;100.00
41264;BME280;26998;48.714;9.414;2023-09-08T01:34:01;100465.63;;;13.38;100.00
41264;BME280;26998;48.714;9.414;2023-09-08T01:36:28;100486.09;;;13.39;100.00
41264;BME280;26998;48.714;9.414;2023-09-08T01:38:55;100482.75;;;13.37;100.00
41264;BME280;26998;48.714;9.414;2023-09-08T01:41:22;100487.09;;;13.38;100.00
41264;BME280;26998;48.714;9.414;2023-09-08T01:43:51;100496.75;;;13.25;100.00
41264;BME280;26998;48.714;9.414;2023-09-08T01:46:18;100493.03;;;13.26;100.00
41264;BME280;26998;48.714;9.414;2023-09-08T01:48:46;100498.25;;;13.27;100.00
41264;BME280;26998;48.714;9.414;2023-09-08T01:51:12;100492.53;;;13.22;100.00
41264;BME280;26998;48.714;9.414;2023-09-08T01:53:39;100498.53;;;13.32;100.00
41264;BME280;26998;48.714;9.414;2023-09-08T01:56:05;100480.41;;;13.34;100.00
41264;BME280;26998;48.714;9.414;2023-09-08T01:58:32;100460.59;;;13.35;100.00
41264;BME280;26998;48.714;9.414;2023-09-08T02:01:02;100452.59;;;13.27;100.00
41264;BME280;26998;48.714;9.414;2023-09-08T02:03:28;100460.31;;;13.22;100.00
41264;BME280;26998;48.714;9.414;2023-09-08T02:05:55;100464.19;;;13.28;100.00
41264;BME280;26998;48.714;9.414;2023-09-08T02:08:24;100451.09;;;13.25;100.00
41264;BME280;26998;48.714;9.414;2023-09-08T02:10:50;100462.03;;;13.15;100.00
41264;BME280;26998;48.714;9.414;2023-09-08T02:13:18;100474.16;;;13.03;100.00
41264;BME280;26998;48.714;9.414;2023-09-08T02:15:45;100486.25;;;12.99;100.00
41264;BME280;26998;48.714;9.414;2023-09-08T02:18:14;100502.34;;;12.99;100.00
41264;BME280;26998;48.714;9.414;2023-09-08T02:20:41;100499.63;;;13.07;100.00
41264;BME280;26998;48.714;9.414;2023-09-08T02:23:07;100492.97;;;13.03;100.00
41264;BME280;26998;48.714;9.414;2023-09-08T02:25:34;100491.13;;;12.95;100.00
41264;BME280;26998;48.714;9.414;2023-09-08T02:28:01;100499.16;;;12.95;100.00
41264;BME280;26998;48.714;9.414;2023-09-08T02:30:28;100494.97;;;12.92;100.00
41264;BME280;26998;48.714;9.414;2023-09-08T02:32:55;100495.69;;;12.86;100.00
41264;BME280;26998;48.714;9.414;2023-09-08T02:35:25;100504.25;;;12.82;100.00
41264;BME280;26998;48.714;9.414;2023-09-08T02:37:56;100516.50;;;12.76;100.00
41264;BME280;26998;48.714;9.414;2023-09-08T02:40:23;100514.81;;;12.83;100.00
41264;BME280;26998;48.714;9.414;2023-09-08T02:42:50;100513.66;;;12.78;100.00
41264;BME280;26998;48.714;9.414;2023-09-08T02:45:17;100516.84;;;12.81;100.00
41264;BME280;26998;48.714;9.414;2023-09-08T02:47:43;100515.84;;;12.74;100.00
41264;BME280;26998;48.714;9.414;2023-09-08T02:50:10;100511.31;;;12.75;100.00
41264;BME280;26998;48.714;9.414;2023-09-08T02:52:36;100508.47;;;12.76;100.00
41264;BME280;26998;48.714;9.414;2023-09-08T02:55:03;100501.72;;;12.80;100.00
41264;BME280;26998;48.714;9.414;2023-09-08T02:57:29;100498.06;;;12.81;100.00
41264;BME280;26998;48.714;9.414;2023-09-08T02:59:56;100492.19;;;12.78;100.00
41264;BME280;26998;48.714;9.414;2023-09-08T03:02:26;100492.69;;;12.73;100.00
41264;BME280;26998;48.714;9.414;2023-09-08T03:04:56;100491.03;;;12.72;100.00
41264;BME280;26998;48.714;9.414;2023-09-08T03:07:27;100492.56;;;12.66;100.00
41264;BME280;26998;48.714;9.414;2023-09-08T03:09:54;100492.41;;;12.60;100.00
41264;BME280;26998;48.714;9.414;2023-09-08T03:12:21;100502.94;;;12.61;100.00
41264;BME280;26998;48.714;9.414;2023-09-08T03:14:50;100501.63;;;12.57;100.00
41264;BME280;26998;48.714;9.414;2023-09-08T03:17:16;100510.34;;;12.51;100.00
41264;BME280;26998;48.714;9.414;2023-09-08T03:19:45;100513.03;;;12.51;100.00
41264;BME280;26998;48.714;9.414;2023-09-08T03:22:12;100510.19;;;12.53;100.00
41264;BME280;26998;48.714;9.414;2023-09-08T03:24:38;100511.03;;;12.53;100.00
41264;BME280;26998;48.714;9.414;2023-09-08T03:27:05;100503.13;;;12.52;100.00
41264;BME280;26998;48.714;9.414;2023-09-08T03:29:32;100496.44;;;12.56;100.00
41264;BME280;26998;48.714;9.414;2023-09-08T03:32:02;100492.75;;;12.57;100.00
41264;BME280;26998;48.714;9.414;2023-09-08T03:34:30;100488.56;;;12.62;100.00
41264;BME280;26998;48.714;9.414;2023-09-08T03:37:00;100470.75;;;12.61;100.00
41264;BME280;26998;48.714;9.414;2023-09-08T03:39:26;100461.03;;;12.68;100.00
41264;BME280;26998;48.714;9.414;2023-09-08T03:41:53;100454.50;;;12.71;100.00
41264;BME280;26998;48.714;9.414;2023-09-08T03:44:21;100442.41;;;12.67;100.00
41264;BME280;26998;48.714;9.414;2023-09-08T03:46:48;100443.78;;;12.63;100.00
41264;BME280;26998;48.714;9.414;2023-09-08T03:49:17;100442.78;;;12.64;100.00
41264;BME280;26998;48.714;9.414;2023-09-08T03:51:45;100451.16;;;12.61;100.00
41264;BME280;26998;48.714;9.414;2023-09-08T03:54:11;100456.19;;;12.64;100.00
41264;BME280;26998;48.714;9.414;2023-09-08T03:56:38;100461.38;;;12.65;100.00
41264;BME280;26998;48.714;9.414;2023-09-08T03:59:04;100457.53;;;12.60;100.00
41264;BME280;26998;48.714;9.414;2023-09-08T04:01:31;100475.28;;;12.61;100.00
41264;BME280;26998;48.714;9.414;2023-09-08T04:03:58;100483.13;;;12.79;100.00
41264;BME280;26998;48.714;9.414;2023-09-08T04:06:24;100459.88;;;12.71;100.00
41264;BME280;26998;48.714;9.414;2023-09-08T04:08:52;100463.25;;;12.65;100.00
41264;BME280;26998;48.714;9.414;2023-09-08T04:11:18;100466.41;;;12.60;100.00
41264;BME280;26998;48.714;9.414;2023-09-08T04:13:45;100468.13;;;12.53;100.00
41264;BME280;26998;48.714;9.414;2023-09-08T04:16:14;100469.63;;;12.56;100.00
41264;BME280;26998;48.714;9.414;2023-09-08T04:18:40;100469.78;;;12.54;100.00
41264;BME280;26998;48.714;9.414;2023-09-08T04:21:07;100471.44;;;12.55;100.00
41264;BME280;26998;48.714;9.414;2023-09-08T04:23:37;100461.41;;;12.49;100.00
41264;BME280;26998;48.714;9.414;2023-09-08T04:26:07;100457.91;;;12.48;100.00
41264;BME280;26998;48.714;9.414;2023-09-08T04:28:34;100466.63;;;12.51;100.00
41264;BME280;26998;48.714;9.414;2023-09-08T04:31:01;100471.97;;;12.51;100.00
41264;BME280;26998;48.714;9.414;2023-09-08T04:33:27;100471.97;;;12.51;100.00
41264;BME280;26998;48.714;9.414;2023-09-08T04:35:54;100471.63;;;12.45;100.00
41264;BME280;26998;48.714;9.414;2023-09-08T04:38:20;100486.75;;;12.38;100.00
41264;BME280;26998;48.714;9.414;2023-09-08T04:40:54;100498.00;;;12.34;100.00
41264;BME280;26998;48.714;9.414;2023-09-08T04:43:22;100501.50;;;12.34;100.00
41264;BME280;26998;48.714;9.414;2023-09-08T04:45:48;100507.53;;;12.36;100.00
41264;BME280;26998;48.714;9.414;2023-09-08T04:48:15;100508.53;;;12.35;100.00
41264;BME280;26998;48.714;9.414;2023-09-08T04:50:42;100510.88;;;12.38;100.00
41264;BME280;26998;48.714;9.414;2023-09-08T04:53:08;100513.56;;;12.46;100.00
41264;BME280;26998;48.714;9.414;2023-09-08T04:55:36;100512.22;;;12.51;100.00
41264;BME280;26998;48.714;9.414;2023-09-08T04:58:03;100512.53;;;12.47;100.00
41264;BME280;26998;48.714;9.414;2023-09-08T05:00:30;100530.97;;;12.51;100.00
41264;BME280;26998;48.714;9.414;2023-09-08T05:02:59;100541.72;;;12.51;100.00
41264;BME280;26998;48.714;9.414;2023-09-08T05:05:27;100541.53;;;12.52;100.00
41264;BME280;26998;48.714;9.414;2023-09-08T05:07:55;100546.25;;;12.50;100.00
41264;BME280;26998;48.714;9.414;2023-09-08T05:10:24;100551.06;;;12.55;100.00
41264;BME280;26998;48.714;9.414;2023-09-08T05:12:52;100556.44;;;12.55;100.00
41264;BME280;26998;48.714;9.414;2023-09-08T05:15:18;100550.41;;;12.61;100.00
41264;BME280;26998;48.714;9.414;2023-09-08T05:17:44;100539.19;;;12.57;100.00
41264;BME280;26998;48.714;9.414;2023-09-08T05:20:11;100524.75;;;12.58;100.00
41264;BME280;26998;48.714;9.414;2023-09-08T05:22:38;100523.09;;;12.57;100.00
41264;BME280;26998;48.714;9.414;2023-09-08T05:25:05;100520.59;;;12.56;100.00
41264;BME280;26998;48.714;9.414;2023-09-08T05:27:32;100527.28;;;12.52;100.00
41264;BME280;26998;48.714;9.414;2023-09-08T05:30:08;100530.28;;;12.48;100.00
41264;BME280;26998;48.714;9.414;2023-09-08T05:32:35;100535.00;;;12.46;100.00
41264;BME280;26998;48.714;9.414;2023-09-08T05:35:02;100543.06;;;12.38;100.00
41264;BME280;26998;48.714;9.414;2023-09-08T05:37:29;100545.25;;;12.43;100.00
41264;BME280;26998;48.714;9.414;2023-09-08T05:39:58;100552.25;;;12.52;100.00
41264;BME280;26998;48.714;9.414;2023-09-08T05:42:25;100548.06;;;12.58;100.00
41264;BME280;26998;48.714;9.414;2023-09-08T05:44:53;100545.38;;;12.66;100.00
41264;BME280;26998;48.714;9.414;2023-09-08T05:47:21;100533.97;;;12.64;100.00
41264;BME280;26998;48.714;9.414;2023-09-08T05:49:48;100533.63;;;12.75;100.00
41264;BME280;26998;48.714;9.414;2023-09-08T05:52:15;100517.81;;;12.80;100.00
41264;BME280;26998;48.714;9.414;2023-09-08T05:54:41;100501.03;;;12.86;100.00
41264;BME280;26998;48.714;9.414;2023-09-08T05:57:08;100486.59;;;12.95;100.00
41264;BME280;26998;48.714;9.414;2023-09-08T05:59:35;100474.88;;;12.97;100.00
41264;BME280;26998;48.714;9.414;2023-09-08T06:02:01;100469.75;;;13.10;100.00
41264;BME280;26998;48.714;9.414;2023-09-08T06:04:28;100445.59;;;13.10;100.00
41264;BME280;26998;48.714;9.414;2023-09-08T06:06:56;100420.38;;;13.27;100.00
41264;BME280;26998;48.714;9.414;2023-09-08T06:09:25;100399.78;;;13.43;100.00
41264;BME280;26998;48.714;9.414;2023-09-08T06:11:52;100370.19;;;13.51;100.00
41264;BME280;26998;48.714;9.414;2023-09-08T06:14:18;100358.06;;;13.55;100.00
41264;BME280;26998;48.714;9.414;2023-09-08T06:16:44;100332.94;;;13.85;100.00
41264;BME280;26998;48.714;9.414;2023-09-08T06:19:12;100313.38;;;13.92;100.00
41264;BME280;26998;48.714;9.414;2023-09-08T06:21:38;100305.41;;;13.98;100.00
41264;BME280;26998;48.714;9.414;2023-09-08T06:24:05;100295.69;;;14.12;100.00
41264;BME280;26998;48.714;9.414;2023-09-08T06:26:31;100270.84;;;14.25;100.00
41264;BME280;26998;48.714;9.414;2023-09-08T06:28:58;100259.81;;;14.20;100.00
41264;BME280;26998;48.714;9.414;2023-09-08T06:31:24;100252.38;;;14.37;100.00
41264;BME280;26998;48.714;9.414;2023-09-08T06:33:51;100232.88;;;14.49;100.00
41264;BME280;26998;48.714;9.414;2023-09-08T06:36:19;100208.13;;;14.75;100.00
41264;BME280;26998;48.714;9.414;2023-09-08T06:38:46;100193.94;;;14.88;100.00
41264;BME280;26998;48.714;9.414;2023-09-08T06:41:14;100186.84;;;15.02;100.00
41264;BME280;26998;48.714;9.414;2023-09-08T06:43:41;100130.31;;;15.37;100.00
41264;BME280;26998;48.714;9.414;2023-09-08T06:46:07;100090.38;;;15.47;100.00
41264;BME280;26998;48.714;9.414;2023-09-08T06:48:35;100053.91;;;15.51;100.00
41264;BME280;26998;48.714;9.414;2023-09-08T06:51:02;100043.22;;;15.64;100.00
41264;BME280;26998;48.714;9.414;2023-09-08T06:53:28;100011.56;;;15.80;100.00
41264;BME280;26998;48.714;9.414;2023-09-08T06:55:55;100013.25;;;16.01;100.00
41264;BME280;26998;48.714;9.414;2023-09-08T06:58:22;100001.03;;;16.18;100.00
41264;BME280;26998;48.714;9.414;2023-09-08T07:00:49;99981.31;;;16.24;100.00
41264;BME280;26998;48.714;9.414;2023-09-08T07:03:16;99966.19;;;16.23;100.00
41264;BME280;26998;48.714;9.414;2023-09-08T07:05:43;99964.28;;;16.57;100.00
41264;BME280;26998;48.714;9.414;2023-09-08T07:08:09;99926.72;;;16.49;100.00
41264;BME280;26998;48.714;9.414;2023-09-08T07:10:37;99928.50;;;16.88;100.00
41264;BME280;26998;48.714;9.414;2023-09-08T07:13:04;99877.09;;;17.15;100.00
41264;BME280;26998;48.714;9.414;2023-09-08T07:15:30;99814.78;;;17.41;100.00
41264;BME280;26998;48.714;9.414;2023-09-08T07:17:57;99780.59;;;17.53;100.00
41264;BME280;26998;48.714;9.414;2023-09-08T07:20:23;99745.31;;;17.48;100.00
41264;BME280;26998;48.714;9.414;2023-09-08T07:22:50;99751.59;;;17.42;100.00
41264;BME280;26998;48.714;9.414;2023-09-08T07:25:17;99725.00;;;17.64;100.00
41264;BME280;26998;48.714;9.414;2023-09-08T07:27:44;99702.59;;;17.82;100.00
41264;BME280;26998;48.714;9.414;2023-09-08T07:30:11;99694.41;;;17.89;100.00
41264;BME280;26998;48.714;9.414;2023-09-08T07:32:38;99652.53;;;18.10;100.00
41264;BME280;26998;48.714;9.414;2023-09-08T07:35:06;99652.50;;;18.28;100.00
41264;BME280;26998;48.714;9.414;2023-09-08T07:37:33;99616.91;;;18.43;100.00
41264;BME280;26998;48.714;9.414;2023-09-08T07:40:00;99605.09;;;18.67;100.00
41264;BME280;26998;48.714;9.414;2023-09-08T07:42:27;99564.84;;;18.71;100.00
41264;BME280;26998;48.714;9.414;2023-09-08T07:44:54;99551.81;;;18.80;100.00
41264;BME280;26998;48.714;9.414;2023-09-08T07:47:21;99533.69;;;18.92;100.00
41264;BME280;26998;48.714;9.414;2023-09-08T07:49:48;99495.97;;;19.02;100.00
41264;BME280;26998;48.714;9.414;2023-09-08T07:52:14;99481.44;;;19.32;100.00
41264;BME280;26998;48.714;9.414;2023-09-08T07:54:41;99425.00;;;19.57;100.00
41264;BME280;26998;48.714;9.414;2023-09-08T07:57:08;99373.78;;;19.90;100.00
41264;BME280;26998;48.714;9.414;2023-09-08T07:59:38;99336.69;;;20.12;100.00
41264;BME280;26998;48.714;9.414;2023-09-08T08:02:06;99320.84;;;20.04;100.00
41264;BME280;26998;48.714;9.414;2023-09-08T08:04:32;99335.25;;;19.88;100.00
41264;BME280;26998;48.714;9.414;2023-09-08T08:06:59;99327.59;;;20.40;100.00
41264;BME280;26998;48.714;9.414;2023-09-08T08:09:26;99291.72;;;20.55;100.00
41264;BME280;26998;48.714;9.414;2023-09-08T08:11:53;99281.81;;;20.66;100.00
41264;BME280;26998;48.714;9.414;2023-09-08T08:14:19;99240.38;;;20.75;100.00
41264;BME280;26998;48.714;9.414;2023-09-08T08:16:46;99247.09;;;20.95;100.00
41264;BME280;26998;48.714;9.414;2023-09-08T08:19:12;99275.84;;;20.47;100.00
41264;BME280;26998;48.714;9.414;2023-09-08T08:21:40;99258.88;;;20.79;100.00
41264;BME280;26998;48.714;9.414;2023-09-08T08:24:08;99238.66;;;20.96;100.00
41264;BME280;26998;48.714;9.414;2023-09-08T08:26:35;99226.47;;;20.99;100.00
41264;BME280;26998;48.714;9.414;2023-09-08T08:29:01;99214.06;;;21.35;100.00
41264;BME280;26998;48.714;9.414;2023-09-08T08:31:28;99209.25;;;21.15;100.00
41264;BME280;26998;48.714;9.414;2023-09-08T08:33:55;99212.28;;;21.24;100.00
41264;BME280;26998;48.714;9.414;2023-09-08T08:36:22;99169.50;;;21.41;100.00
41264;BME280;26998;48.714;9.414;2023-09-08T08:38:50;99145.44;;;21.60;100.00
41264;BME280;26998;48.714;9.414;2023-09-08T08:41:16;99149.84;;;21.72;100.00
41264;BME280;26998;48.714;9.414;2023-09-08T08:43:43;99137.19;;;21.98;100.00
41264;BME280;26998;48.714;9.414;2023-09-08T08:46:11;99114.47;;;22.24;100.00
41264;BME280;26998;48.714;9.414;2023-09-08T08:48:40;99103.78;;;22.12;100.00
41264;BME280;26998;48.714;9.414;2023-09-08T08:51:08;99095.38;;;22.19;100.00
41264;BME280;26998;48.714;9.414;2023-09-08T08:53:38;99070.06;;;22.29;100.00
41264;BME280;26998;48.714;9.414;2023-09-08T08:56:09;99066.28;;;22.35;100.00
41264;BME280;26998;48.714;9.414;2023-09-08T08:58:39;99060.31;;;22.79;100.00
41264;BME280;26998;48.714;9.414;2023-09-08T09:01:11;99042.88;;;23.05;100.00
41264;BME280;26998;48.714;9.414;2023-09-08T09:03:41;99028.44;;;22.95;100.00
41264;BME280;26998;48.714;9.414;2023-09-08T09:06:10;99023.22;;;23.14;100.00
41264;BME280;26998;48.714;9.414;2023-09-08T09:08:38;99027.84;;;23.13;100.00
41264;BME280;26998;48.714;9.414;2023-09-08T09:11:05;99026.53;;;22.75;100.00
41264;BME280;26998;48.714;9.414;2023-09-08T09:13:31;99029.25;;;23.00;100.00
41264;BME280;26998;48.714;9.414;2023-09-08T09:16:01;99007.38;;;23.26;100.00
41264;BME280;26998;48.714;9.414;2023-09-08T09:18:30;99009.88;;;23.07;100.00
41264;BME280;26998;48.714;9.414;2023-09-08T09:21:00;99006.59;;;23.10;100.00
41264;BME280;26998;48.714;9.414;2023-09-08T09:23:32;99003.69;;;23.61;100.00
41264;BME280;26998;48.714;9.414;2023-09-08T09:26:00;99003.94;;;23.70;100.00
41264;BME280;26998;48.714;9.414;2023-09-08T09:28:31;98994.59;;;23.86;100.00
41264;BME280;26998;48.714;9.414;2023-09-08T09:30:58;98993.94;;;24.05;100.00
41264;BME280;26998;48.714;9.414;2023-09-08T09:33:29;98976.25;;;24.36;100.00
41264;BME280;26998;48.714;9.414;2023-09-08T09:35:56;98978.91;;;24.47;100.00
41264;BME280;26998;48.714;9.414;2023-09-08T09:38:26;98970.59;;;24.62;100.00
41264;BME280;26998;48.714;9.414;2023-09-08T09:40:54;98972.81;;;24.20;100.00
41264;BME280;26998;48.714;9.414;2023-09-08T09:43:21;98965.47;;;24.79;100.00
41264;BME280;26998;48.714;9.414;2023-09-08T09:45:48;98961.97;;;25.03;100.00
41264;BME280;26998;48.714;9.414;2023-09-08T09:48:15;98959.75;;;25.05;100.00
41264;BME280;26998;48.714;9.414;2023-09-08T09:50:42;98948.66;;;24.96;100.00
41264;BME280;26998;48.714;9.414;2023-09-08T09:53:16;98955.63;;;24.83;100.00
41264;BME280;26998;48.714;9.414;2023-09-08T09:55:44;98957.81;;;24.81;100.00
41264;BME280;26998;48.714;9.414;2023-09-08T09:58:12;98951.69;;;25.19;100.00
41264;BME280;26998;48.714;9.414;2023-09-08T10:00:39;98951.69;;;25.19;100.00
41264;BME280;26998;48.714;9.414;2023-09-08T10:03:07;98947.47;;;25.26;100.00
41264;BME280;26998;48.714;9.414;2023-09-08T10:05:34;98944.88;;;25.59;100.00
41264;BME280;26998;48.714;9.414;2023-09-08T10:08:00;98932.38;;;25.72;99.47
41264;BME280;26998;48.714;9.414;2023-09-08T10:10:29;98933.19;;;25.72;98.47
41264;BME280;26998;48.714;9.414;2023-09-08T10:13:02;98933.22;;;25.91;96.27
41264;BME280;26998;48.714;9.414;2023-09-08T10:15:31;98934.28;;;25.95;96.86
41264;BME280;26998;48.714;9.414;2023-09-08T10:18:04;98923.38;;;25.71;97.58
41264;BME280;26998;48.714;9.414;2023-09-08T10:20:34;98919.84;;;25.90;94.69
41264;BME280;26998;48.714;9.414;2023-09-08T10:23:12;98912.75;;;26.21;96.99
41264;BME280;26998;48.714;9.414;2023-09-08T10:25:47;98916.63;;;26.20;94.78
41264;BME280;26998;48.714;9.414;2023-09-08T10:28:17;98907.75;;;26.42;95.71
41264;BME280;26998;48.714;9.414;2023-09-08T10:30:46;98907.56;;;26.20;95.68
41264;BME280;26998;48.714;9.414;2023-09-08T10:33:15;98909.69;;;26.42;97.41
41264;BME280;26998;48.714;9.414;2023-09-08T10:35:45;98909.13;;;26.72;95.36
41264;BME280;26998;48.714;9.414;2023-09-08T10:38:31;98901.81;;;26.68;95.18
41264;BME280;26998;48.714;9.414;2023-09-08T10:41:37;98904.31;;;26.51;96.13
41264;BME280;26998;48.714;9.414;2023-09-08T10:44:07;98912.38;;;26.88;93.84
41264;BME280;26998;48.714;9.414;2023-09-08T10:46:35;98909.13;;;26.59;93.78
41264;BME280;26998;48.714;9.414;2023-09-08T10:49:05;98904.09;;;26.80;93.13
41264;BME280;26998;48.714;9.414;2023-09-08T10:51:33;98905.50;;;27.05;90.88
41264;BME280;26998;48.714;9.414;2023-09-08T10:54:04;98899.88;;;27.51;89.80
41264;BME280;26998;48.714;9.414;2023-09-08T10:56:53;98902.56;;;27.15;91.17
41264;BME280;26998;48.714;9.414;2023-09-08T10:59:27;98894.91;;;27.39;88.44
41264;BME280;26998;48.714;9.414;2023-09-08T11:01:55;98889.34;;;27.31;88.45
41264;BME280;26998;48.714;9.414;2023-09-08T11:04:23;98889.38;;;27.53;89.10
41264;BME280;26998;48.714;9.414;2023-09-08T11:06:50;98893.41;;;27.20;90.47
41264;BME280;26998;48.714;9.414;2023-09-08T11:09:20;98886.19;;;27.74;88.31
41264;BME280;26998;48.714;9.414;2023-09-08T11:11:46;98882.72;;;27.82;86.31
41264;BME280;26998;48.714;9.414;2023-09-08T11:14:15;98885.50;;;28.04;89.15
41264;BME280;26998;48.714;9.414;2023-09-08T11:16:43;98891.56;;;27.43;92.37
41264;BME280;26998;48.714;9.414;2023-09-08T11:19:10;98887.44;;;27.68;92.37
41264;BME280;26998;48.714;9.414;2023-09-08T11:21:37;98891.16;;;27.72;92.29
41264;BME280;26998;48.714;9.414;2023-09-08T11:24:07;98885.75;;;27.44;91.72
41264;BME280;26998;48.714;9.414;2023-09-08T11:26:34;98893.03;;;27.62;89.20
41264;BME280;26998;48.714;9.414;2023-09-08T11:29:01;98874.97;;;28.06;89.49
41264;BME280;26998;48.714;9.414;2023-09-08T11:31:29;98878.94;;;27.92;89.70
41264;BME280;26998;48.714;9.414;2023-09-08T11:33:57;98880.31;;;27.67;90.88
41264;BME280;26998;48.714;9.414;2023-09-08T11:36:26;98876.31;;;27.86;91.42
41264;BME280;26998;48.714;9.414;2023-09-08T11:38:54;98876.38;;;27.95;89.80
41264;BME280;26998;48.714;9.414;2023-09-08T11:41:22;98879.34;;;27.85;90.72
41264;BME280;26998;48.714;9.414;2023-09-08T11:43:52;98875.41;;;28.00;89.72
41264;BME280;26998;48.714;9.414;2023-09-08T11:46:18;98873.38;;;27.83;89.41
41264;BME280;26998;48.714;9.414;2023-09-08T11:48:46;98878.06;;;28.05;88.79
41264;BME280;26998;48.714;9.414;2023-09-08T11:51:12;98871.97;;;27.94;87.47
41264;BME280;26998;48.714;9.414;2023-09-08T11:53:39;98879.97;;;27.82;87.12
41264;BME280;26998;48.714;9.414;2023-09-08T11:56:07;98873.06;;;27.71;87.49
41264;BME280;26998;48.714;9.414;2023-09-08T11:58:35;98867.69;;;28.02;88.34
41264;BME280;26998;48.714;9.414;2023-09-08T12:01:03;98874.50;;;28.04;85.95
41264;BME280;26998;48.714;9.414;2023-09-08T12:03:34;98867.38;;;28.26;87.65
41264;BME280;26998;48.714;9.414;2023-09-08T12:06:03;98869.47;;;28.29;88.19
41264;BME280;26998;48.714;9.414;2023-09-08T12:08:34;98864.25;;;28.41;86.62
41264;BME280;26998;48.714;9.414;2023-09-08T12:11:04;98859.13;;;28.03;88.45
41264;BME280;26998;48.714;9.414;2023-09-08T12:13:31;98857.94;;;27.96;88.00
41264;BME280;26998;48.714;9.414;2023-09-08T12:15:58;98865.00;;;28.11;90.15
41264;BME280;26998;48.714;9.414;2023-09-08T12:18:51;98859.97;;;28.04;88.24
41264;BME280;26998;48.714;9.414;2023-09-08T12:21:18;98859.66;;;28.68;83.73
41264;BME280;26998;48.714;9.414;2023-09-08T12:23:48;98853.88;;;28.78;86.72
41264;BME280;26998;48.714;9.414;2023-09-08T12:26:15;98854.47;;;28.35;83.21
41264;BME280;26998;48.714;9.414;2023-09-08T12:28:43;98851.50;;;28.23;85.44
41264;BME280;26998;48.714;9.414;2023-09-08T12:31:10;98846.69;;;28.60;83.36
41264;BME280;26998;48.714;9.414;2023-09-08T12:33:39;98854.94;;;28.60;79.58
41264;BME280;26998;48.714;9.414;2023-09-08T12:36:17;98849.63;;;28.32;79.69
41264;BME280;26998;48.714;9.414;2023-09-08T12:38:51;98847.72;;;28.81;82.62
41264;BME280;26998;48.714;9.414;2023-09-08T12:41:19;98843.69;;;28.87;78.65
41264;BME280;26998;48.714;9.414;2023-09-08T12:43:46;98840.69;;;29.06;78.86
41264;BME280;26998;48.714;9.414;2023-09-08T12:46:16;98847.03;;;29.07;75.47
41264;BME280;26998;48.714;9.414;2023-09-08T12:48:45;98848.56;;;29.65;73.21
41264;BME280;26998;48.714;9.414;2023-09-08T12:51:11;98849.13;;;29.01;73.87